sensor_id;sensor_type;location;lat;lon;timestamp;pressure;altitude;pressure_sealevel;temperature;humidity
33454;BME280;39400;49.744;7.012;2023-04-25T00:01:45;95302.25;;;5.75;100.00
33454;BME280;39400;49.744;7.012;2023-04-25T00:04:10;95307.69;;;5.75;100.00
33454;BME280;39400;49.744;7.012;2023-04-25T00:06:35;95312.00;;;5.76;100.00
33454;BME280;39400;49.744;7.012;2023-04-25T00:09:01;95325.63;;;5.72;100.00
33454;BME280;39400;49.744;7.012;2023-04-25T00:11:26;95306.94;;;5.78;100.00
33454;BME280;39400;49.744;7.012;2023-04-25T00:13:51;95312.34;;;5.70;100.00
33454;BME280;39400;49.744;7.012;2023-04-25T00:16:17;95313.16;;;5.75;100.00
33454;BME280;39400;49.744;7.012;2023-04-25T00:18:42;95305.38;;;5.77;100.00
33454;BME280;39400;49.744;7.012;2023-04-25T00:21:10;95315.88;;;5.75;100.00
33454;BME280;39400;49.744;7.012;2023-04-25T00:23:36;95309.22;;;5.68;100.00
33454;BME280;39400;49.744;7.012;2023-04-25T00:26:01;95316.97;;;5.63;100.00
33454;BME280;39400;49.744;7.012;2023-04-25T00:28:27;95315.78;;;5.64;100.00
33454;BME280;39400;49.744;7.012;2023-04-25T00:30:52;95311.50;;;5.63;100.00
33454;BME280;39400;49.744;7.012;2023-04-25T00:33:17;95310.72;;;5.62;100.00
33454;BME280;39400;49.744;7.012;2023-04-25T00:35:43;95311.50;;;5.63;100.00
33454;BME280;39400;49.744;7.012;2023-04-25T00:38:08;95306.09;;;5.66;100.00
33454;BME280;39400;49.744;7.012;2023-04-25T00:40:34;95304.44;;;5.55;100.00
33454;BME280;39400;49.744;7.012;2023-04-25T00:43:00;95296.63;;;5.53;100.00
33454;BME280;39400;49.744;7.012;2023-04-25T00:45:28;95293.53;;;5.55;100.00
33454;BME280;39400;49.744;7.012;2023-04-25T00:47:54;95290.41;;;5.56;100.00
33454;BME280;39400;49.744;7.012;2023-04-25T00:50:19;95284.13;;;5.48;100.00
33454;BME280;39400;49.744;7.012;2023-04-25T00:52:45;95286.41;;;5.43;100.00
33454;BME280;39400;49.744;7.012;2023-04-25T00:55:11;95297.78;;;5.52;100.00
33454;BME280;39400;49.744;7.012;2023-04-25T00:57:37;95293.84;;;5.46;100.00
33454;BME280;39400;49.744;7.012;2023-04-25T01:00:04;95289.56;;;5.45;100.00
33454;BME280;39400;49.744;7.012;2023-04-25T01:02:31;95295.00;;;5.45;100.00
33454;BME280;39400;49.744;7.012;2023-04-25T01:04:57;95286.44;;;5.46;100.00
33454;BME280;39400;49.744;7.012;2023-04-25T01:07:22;95284.91;;;5.49;100.00
33454;BME280;39400;49.744;7.012;2023-04-25T01:09:48;95288.41;;;5.49;100.00
33454;BME280;39400;49.744;7.012;2023-04-25T01:12:13;95296.56;;;5.46;100.00
33454;BME280;39400;49.744;7.012;2023-04-25T01:14:39;95290.38;;;5.49;100.00
33454;BME280;39400;49.744;7.012;2023-04-25T01:17:04;95290.38;;;5.49;100.00
33454;BME280;39400;49.744;7.012;2023-04-25T01:19:30;95295.47;;;5.54;100.00
33454;BME280;39400;49.744;7.012;2023-04-25T01:21:56;95291.91;;;5.50;100.00
33454;BME280;39400;49.744;7.012;2023-04-25T01:24:22;95293.91;;;5.53;100.00
33454;BME280;39400;49.744;7.012;2023-04-25T01:26:48;95297.38;;;5.50;100.00
33454;BME280;39400;49.744;7.012;2023-04-25T01:29:14;95291.91;;;5.50;100.00
33454;BME280;39400;49.744;7.012;2023-04-25T01:31:39;95288.00;;;5.44;100.00
33454;BME280;39400;49.744;7.012;2023-04-25T01:34:05;95287.22;;;5.47;100.00
33454;BME280;39400;49.744;7.012;2023-04-25T01:36:30;95293.88;;;5.49;100.00
33454;BME280;39400;49.744;7.012;2023-04-25T01:38:56;95294.22;;;5.44;100.00
33454;BME280;39400;49.744;7.012;2023-04-25T01:41:21;95291.91;;;5.50;100.00
33454;BME280;39400;49.744;7.012;2023-04-25T01:43:47;95276.72;;;5.49;100.00
33454;BME280;39400;49.744;7.012;2023-04-25T01:46:13;95270.53;;;5.52;100.00
33454;BME280;39400;49.744;7.012;2023-04-25T01:48:38;95276.38;;;5.54;100.00
33454;BME280;39400;49.744;7.012;2023-04-25T01:51:04;95268.19;;;5.54;100.00
33454;BME280;39400;49.744;7.012;2023-04-25T01:53:30;95265.88;;;5.56;100.00
33454;BME280;39400;49.744;7.012;2023-04-25T01:55:55;95275.22;;;5.55;100.00
33454;BME280;39400;49.744;7.012;2023-04-25T01:58:26;95270.84;;;5.47;100.00
33454;BME280;39400;49.744;7.012;2023-04-25T02:01:06;95280.56;;;5.41;100.00
33454;BME280;39400;49.744;7.012;2023-04-25T02:03:39;95271.66;;;5.47;100.00
33454;BME280;39400;49.744;7.012;2023-04-25T02:06:09;95282.56;;;5.47;100.00
33454;BME280;39400;49.744;7.012;2023-04-25T02:08:38;95280.22;;;5.46;100.00
33454;BME280;39400;49.744;7.012;2023-04-25T02:11:03;95287.22;;;5.47;100.00
33454;BME280;39400;49.744;7.012;2023-04-25T02:13:36;95277.13;;;5.47;100.00
33454;BME280;39400;49.744;7.012;2023-04-25T02:16:17;95271.16;;;5.35;100.00
33454;BME280;39400;49.744;7.012;2023-04-25T02:18:42;95270.00;;;5.36;100.00
33454;BME280;39400;49.744;7.012;2023-04-25T02:21:08;95273.84;;;5.31;100.00
33454;BME280;39400;49.744;7.012;2023-04-25T02:23:33;95272.66;;;5.29;100.00
33454;BME280;39400;49.744;7.012;2023-04-25T02:25:59;95268.72;;;5.22;100.00
33454;BME280;39400;49.744;7.012;2023-04-25T02:28:24;95272.66;;;5.29;100.00
33454;BME280;39400;49.744;7.012;2023-04-25T02:30:50;95275.41;;;5.32;100.00
33454;BME280;39400;49.744;7.012;2023-04-25T02:33:15;95272.25;;;5.23;100.00
33454;BME280;39400;49.744;7.012;2023-04-25T02:35:40;95268.31;;;5.20;100.00
33454;BME280;39400;49.744;7.012;2023-04-25T02:38:06;95271.44;;;5.22;100.00
33454;BME280;39400;49.744;7.012;2023-04-25T02:40:32;95266.72;;;5.19;100.00
33454;BME280;39400;49.744;7.012;2023-04-25T02:42:57;95267.50;;;5.16;100.00
33454;BME280;39400;49.744;7.012;2023-04-25T02:45:25;95274.47;;;5.14;100.00
33454;BME280;39400;49.744;7.012;2023-04-25T02:47:50;95273.72;;;5.17;100.00
33454;BME280;39400;49.744;7.012;2023-04-25T02:50:18;95275.31;;;5.21;100.00
33454;BME280;39400;49.744;7.012;2023-04-25T02:52:43;95264.91;;;5.31;100.00
33454;BME280;39400;49.744;7.012;2023-04-25T02:55:15;95274.63;;;5.32;100.00
33454;BME280;39400;49.744;7.012;2023-04-25T02:57:41;95265.00;;;5.45;100.00
33454;BME280;39400;49.744;7.012;2023-04-25T03:00:11;95273.09;;;5.34;100.00
33454;BME280;39400;49.744;7.012;2023-04-25T03:02:37;95267.59;;;5.27;100.00
33454;BME280;39400;49.744;7.012;2023-04-25T03:05:02;95265.22;;;5.25;100.00
33454;BME280;39400;49.744;7.012;2023-04-25T03:07:28;95270.72;;;5.29;100.00
33454;BME280;39400;49.744;7.012;2023-04-25T03:09:53;95257.88;;;5.30;100.00
33454;BME280;39400;49.744;7.012;2023-04-25T03:12:19;95272.34;;;5.34;100.00
33454;BME280;39400;49.744;7.012;2023-04-25T03:14:44;95270.09;;;5.50;100.00
33454;BME280;39400;49.744;7.012;2023-04-25T03:17:09;95257.75;;;5.63;100.00
33454;BME280;39400;49.744;7.012;2023-04-25T03:19:35;95256.19;;;5.62;100.00
33454;BME280;39400;49.744;7.012;2023-04-25T03:22:00;95251.53;;;5.63;100.00
33454;BME280;39400;49.744;7.012;2023-04-25T03:24:26;95253.84;;;5.64;100.00
33454;BME280;39400;49.744;7.012;2023-04-25T03:26:51;95254.63;;;5.61;100.00
33454;BME280;39400;49.744;7.012;2023-04-25T03:29:17;95252.28;;;5.63;100.00
33454;BME280;39400;49.744;7.012;2023-04-25T03:31:43;95249.59;;;5.67;100.00
33454;BME280;39400;49.744;7.012;2023-04-25T03:34:09;95254.69;;;5.68;100.00
33454;BME280;39400;49.744;7.012;2023-04-25T03:36:34;95241.09;;;5.76;100.00
33454;BME280;39400;49.744;7.012;2023-04-25T03:39:00;95244.56;;;5.69;100.00
33454;BME280;39400;49.744;7.012;2023-04-25T03:41:27;95252.34;;;5.70;100.00
33454;BME280;39400;49.744;7.012;2023-04-25T03:44:01;95253.88;;;5.68;100.00
33454;BME280;39400;49.744;7.012;2023-04-25T03:46:26;95262.38;;;5.56;100.00
33454;BME280;39400;49.744;7.012;2023-04-25T03:48:52;95266.28;;;5.58;100.00
33454;BME280;39400;49.744;7.012;2023-04-25T03:51:21;95249.09;;;5.54;100.00
33454;BME280;39400;49.744;7.012;2023-04-25T03:53:47;95245.22;;;5.55;100.00
33454;BME280;39400;49.744;7.012;2023-04-25T03:56:19;95252.19;;;5.49;100.00
33454;BME280;39400;49.744;7.012;2023-04-25T03:58:46;95252.19;;;5.49;100.00
33454;BME280;39400;49.744;7.012;2023-04-25T04:01:13;95264.63;;;5.46;100.00
33454;BME280;39400;49.744;7.012;2023-04-25T04:03:39;95265.41;;;5.47;100.00
33454;BME280;39400;49.744;7.012;2023-04-25T04:06:06;95271.63;;;5.44;100.00
33454;BME280;39400;49.744;7.012;2023-04-25T04:08:35;95269.25;;;5.39;100.00
33454;BME280;39400;49.744;7.012;2023-04-25T04:11:02;95277.00;;;5.37;100.00
33454;BME280;39400;49.744;7.012;2023-04-25T04:13:28;95275.81;;;5.31;100.00
33454;BME280;39400;49.744;7.012;2023-04-25T04:15:54;95271.78;;;5.17;100.00
33454;BME280;39400;49.744;7.012;2023-04-25T04:18:20;95270.69;;;5.25;100.00
33454;BME280;39400;49.744;7.012;2023-04-25T04:20:45;95263.72;;;5.32;100.00
33454;BME280;39400;49.744;7.012;2023-04-25T04:23:11;95273.44;;;5.29;100.00
33454;BME280;39400;49.744;7.012;2023-04-25T04:25:36;95263.00;;;5.38;100.00
33454;BME280;39400;49.744;7.012;2023-04-25T04:28:28;95270.09;;;5.50;100.00
33454;BME280;39400;49.744;7.012;2023-04-25T04:30:57;95270.19;;;5.61;100.00
33454;BME280;39400;49.744;7.012;2023-04-25T04:33:23;95267.09;;;5.62;100.00
33454;BME280;39400;49.744;7.012;2023-04-25T04:35:55;95272.50;;;5.55;100.00
33454;BME280;39400;49.744;7.012;2023-04-25T04:38:20;95267.78;;;5.48;100.00
33454;BME280;39400;49.744;7.012;2023-04-25T04:40:46;95271.75;;;5.58;100.00
33454;BME280;39400;49.744;7.012;2023-04-25T04:43:23;95280.41;;;5.75;100.00
33454;BME280;39400;49.744;7.012;2023-04-25T04:46:02;95281.13;;;5.64;100.00
33454;BME280;39400;49.744;7.012;2023-04-25T04:48:39;95284.16;;;5.52;100.00
33454;BME280;39400;49.744;7.012;2023-04-25T04:51:23;95282.88;;;5.39;100.00
33454;BME280;39400;49.744;7.012;2023-04-25T04:54:03;95286.88;;;5.52;100.00
33454;BME280;39400;49.744;7.012;2023-04-25T04:56:49;95294.59;;;5.43;100.00
33454;BME280;39400;49.744;7.012;2023-04-25T04:59:35;95290.94;;;5.24;100.00
33454;BME280;39400;49.744;7.012;2023-04-25T05:02:19;95294.38;;;5.18;100.00
33454;BME280;39400;49.744;7.012;2023-04-25T05:05:05;95292.47;;;5.25;100.00
33454;BME280;39400;49.744;7.012;2023-04-25T05:07:54;95297.59;;;5.31;100.00
33454;BME280;39400;49.744;7.012;2023-04-25T05:10:42;95316.06;;;5.48;100.00
33454;BME280;39400;49.744;7.012;2023-04-25T05:13:33;95314.91;;;5.08;100.00
33454;BME280;39400;49.744;7.012;2023-04-25T05:16:17;95303.25;;;5.11;100.00
33454;BME280;39400;49.744;7.012;2023-04-25T05:18:50;95307.00;;;4.96;100.00
33454;BME280;39400;49.744;7.012;2023-04-25T05:21:28;95306.47;;;5.20;100.00
33454;BME280;39400;49.744;7.012;2023-04-25T05:24:08;95319.06;;;5.36;100.00
33454;BME280;39400;49.744;7.012;2023-04-25T05:26:52;95315.13;;;5.33;100.00
33454;BME280;39400;49.744;7.012;2023-04-25T05:29:59;95323.56;;;5.17;100.00
33454;BME280;39400;49.744;7.012;2023-04-25T05:32:29;95319.72;;;5.22;100.00
33454;BME280;39400;49.744;7.012;2023-04-25T05:34:55;95324.41;;;5.25;100.00
33454;BME280;39400;49.744;7.012;2023-04-25T05:37:24;95320.63;;;5.37;100.00
33454;BME280;39400;49.744;7.012;2023-04-25T05:40:04;95316.81;;;5.45;100.00
33454;BME280;39400;49.744;7.012;2023-04-25T05:42:56;95317.00;;;5.66;100.00
33454;BME280;39400;49.744;7.012;2023-04-25T05:45:40;95328.69;;;5.67;100.00
33454;BME280;39400;49.744;7.012;2023-04-25T05:48:28;95326.34;;;5.65;100.00
33454;BME280;39400;49.744;7.012;2023-04-25T05:51:20;95328.66;;;5.63;100.00
33454;BME280;39400;49.744;7.012;2023-04-25T05:53:56;95324.69;;;5.57;100.00
33454;BME280;39400;49.744;7.012;2023-04-25T05:56:22;95325.44;;;5.54;100.00
33454;BME280;39400;49.744;7.012;2023-04-25T05:58:50;95332.56;;;5.62;100.00
33454;BME280;39400;49.744;7.012;2023-04-25T06:01:16;95340.34;;;5.64;100.00
33454;BME280;39400;49.744;7.012;2023-04-25T06:03:41;95336.44;;;5.61;100.00
33454;BME280;39400;49.744;7.012;2023-04-25T06:06:07;95345.97;;;5.85;100.00
33454;BME280;39400;49.744;7.012;2023-04-25T06:08:32;95346.22;;;6.10;100.00
33454;BME280;39400;49.744;7.012;2023-04-25T06:10:57;95343.28;;;5.89;100.00
33454;BME280;39400;49.744;7.012;2023-04-25T06:13:23;95340.28;;;5.57;100.00
33454;BME280;39400;49.744;7.012;2023-04-25T06:15:48;95352.25;;;5.45;100.00
33454;BME280;39400;49.744;7.012;2023-04-25T06:18:14;95350.69;;;5.44;100.00
33454;BME280;39400;49.744;7.012;2023-04-25T06:20:39;95350.75;;;5.51;100.00
33454;BME280;39400;49.744;7.012;2023-04-25T06:23:05;95354.38;;;5.62;100.00
33454;BME280;39400;49.744;7.012;2023-04-25T06:25:39;95355.78;;;5.90;100.00
33454;BME280;39400;49.744;7.012;2023-04-25T06:44:21;95369.63;;;5.70;100.00
33454;BME280;39400;49.744;7.012;2023-04-25T06:46:52;95372.47;;;5.85;100.00
33454;BME280;39400;49.744;7.012;2023-04-25T06:49:18;95381.97;;;5.98;100.00
33454;BME280;39400;49.744;7.012;2023-04-25T06:51:44;95370.66;;;5.96;100.00
33454;BME280;39400;49.744;7.012;2023-04-25T06:54:09;95374.53;;;5.95;100.00
33454;BME280;39400;49.744;7.012;2023-04-25T06:56:41;95373.50;;;6.10;100.00
33454;BME280;39400;49.744;7.012;2023-04-25T06:59:11;95379.75;;;6.14;100.00
33454;BME280;39400;49.744;7.012;2023-04-25T07:01:39;95384.34;;;6.00;100.00
33454;BME280;39400;49.744;7.012;2023-04-25T07:04:10;95381.22;;;6.01;100.00
33454;BME280;39400;49.744;7.012;2023-04-25T07:06:40;95382.44;;;6.07;100.00
33454;BME280;39400;49.744;7.012;2023-04-25T07:09:05;95384.09;;;5.78;100.00
33454;BME280;39400;49.744;7.012;2023-04-25T07:11:31;95391.28;;;5.93;100.00
33454;BME280;39400;49.744;7.012;2023-04-25T07:13:56;95394.63;;;5.76;100.00
33454;BME280;39400;49.744;7.012;2023-04-25T07:16:21;95402.19;;;5.53;100.00
33454;BME280;39400;49.744;7.012;2023-04-25T07:18:47;95406.56;;;5.64;100.00
33454;BME280;39400;49.744;7.012;2023-04-25T07:21:13;95407.41;;;5.68;100.00
33454;BME280;39400;49.744;7.012;2023-04-25T07:23:40;95412.94;;;5.76;100.00
33454;BME280;39400;49.744;7.012;2023-04-25T07:26:09;95410.47;;;5.63;100.00
33454;BME280;39400;49.744;7.012;2023-04-25T07:28:39;95406.78;;;5.86;100.00
33454;BME280;39400;49.744;7.012;2023-04-25T07:31:04;95408.03;;;5.51;100.00
33454;BME280;39400;49.744;7.012;2023-04-25T07:33:31;95413.22;;;5.30;100.00
33454;BME280;39400;49.744;7.012;2023-04-25T07:35:56;95422.06;;;5.19;100.00
33454;BME280;39400;49.744;7.012;2023-04-25T07:38:22;95426.75;;;5.56;100.00
33454;BME280;39400;49.744;7.012;2023-04-25T07:40:48;95427.78;;;5.82;100.00
33454;BME280;39400;49.744;7.012;2023-04-25T07:43:15;95435.56;;;5.80;100.00
33454;BME280;39400;49.744;7.012;2023-04-25T07:45:48;95434.75;;;5.76;100.00
33454;BME280;39400;49.744;7.012;2023-04-25T07:48:18;95438.94;;;5.66;100.00
33454;BME280;39400;49.744;7.012;2023-04-25T07:50:45;95443.34;;;5.78;100.00
33454;BME280;39400;49.744;7.012;2023-04-25T07:53:11;95455.28;;;5.29;100.00
33454;BME280;39400;49.744;7.012;2023-04-25T07:55:43;95451.66;;;5.51;100.00
33454;BME280;39400;49.744;7.012;2023-04-25T07:58:16;95453.72;;;5.28;100.00
33454;BME280;39400;49.744;7.012;2023-04-25T08:00:43;95462.13;;;5.49;100.00
33454;BME280;39400;49.744;7.012;2023-04-25T08:03:23;95449.97;;;5.43;100.00
33454;BME280;39400;49.744;7.012;2023-04-25T08:07:33;95474.00;;;5.30;100.00
33454;BME280;39400;49.744;7.012;2023-04-25T08:10:03;95470.31;;;5.49;100.00
33454;BME280;39400;49.744;7.012;2023-04-25T08:12:32;95476.38;;;5.35;100.00
33454;BME280;39400;49.744;7.012;2023-04-25T08:14:58;95481.00;;;5.31;100.00
33454;BME280;39400;49.744;7.012;2023-04-25T08:17:26;95481.66;;;5.51;100.00
33454;BME280;39400;49.744;7.012;2023-04-25T08:19:52;95485.91;;;5.48;100.00
33454;BME280;39400;49.744;7.012;2023-04-25T08:22:23;95496.41;;;5.50;100.00
33454;BME280;39400;49.744;7.012;2023-04-25T08:24:54;95499.88;;;5.47;100.00
33454;BME280;39400;49.744;7.012;2023-04-25T08:27:20;95505.47;;;5.58;100.00
33454;BME280;39400;49.744;7.012;2023-04-25T08:29:46;95503.25;;;5.37;100.00
33454;BME280;39400;49.744;7.012;2023-04-25T08:32:11;95509.09;;;5.35;100.00
33454;BME280;39400;49.744;7.012;2023-04-25T08:34:42;95513.84;;;5.42;100.00
33454;BME280;39400;49.744;7.012;2023-04-25T08:37:08;95513.31;;;5.63;100.00
33454;BME280;39400;49.744;7.012;2023-04-25T08:39:48;95519.16;;;5.61;100.00
33454;BME280;39400;49.744;7.012;2023-04-25T08:42:31;95525.50;;;5.39;100.00
33454;BME280;39400;49.744;7.012;2023-04-25T08:44:58;95528.78;;;5.52;100.00
33454;BME280;39400;49.744;7.012;2023-04-25T08:47:29;95522.53;;;5.51;100.00
33454;BME280;39400;49.744;7.012;2023-04-25T08:49:57;95533.69;;;5.39;100.00
33454;BME280;39400;49.744;7.012;2023-04-25T08:52:27;95540.47;;;5.52;100.00
33454;BME280;39400;49.744;7.012;2023-04-25T08:54:56;95539.16;;;5.72;100.00
33454;BME280;39400;49.744;7.012;2023-04-25T08:57:23;95549.91;;;5.58;100.00
33454;BME280;39400;49.744;7.012;2023-04-25T08:59:49;95542.06;;;5.57;100.00
33454;BME280;39400;49.744;7.012;2023-04-25T09:02:17;95542.97;;;5.34;100.00
33454;BME280;39400;49.744;7.012;2023-04-25T09:04:44;95557.56;;;5.49;100.00
33454;BME280;39400;49.744;7.012;2023-04-25T09:07:10;95559.75;;;6.00;100.00
33454;BME280;39400;49.744;7.012;2023-04-25T09:09:35;95562.88;;;6.02;100.00
33454;BME280;39400;49.744;7.012;2023-04-25T09:12:00;95563.16;;;6.27;100.00
33454;BME280;39400;49.744;7.012;2023-04-25T09:14:27;95575.22;;;6.26;100.00
33454;BME280;39400;49.744;7.012;2023-04-25T09:17:10;95574.88;;;6.28;100.00
33454;BME280;39400;49.744;7.012;2023-04-25T09:19:44;95578.78;;;6.30;100.00
33454;BME280;39400;49.744;7.012;2023-04-25T09:22:24;95583.56;;;6.40;100.00
33454;BME280;39400;49.744;7.012;2023-04-25T09:24:49;95592.97;;;6.09;100.00
33454;BME280;39400;49.744;7.012;2023-04-25T09:27:20;95597.03;;;5.89;100.00
33454;BME280;39400;49.744;7.012;2023-04-25T09:29:56;95588.28;;;5.76;100.00
33454;BME280;39400;49.744;7.012;2023-04-25T09:32:23;95600.63;;;5.66;100.00
33454;BME280;39400;49.744;7.012;2023-04-25T09:34:54;95600.22;;;5.94;100.00
33454;BME280;39400;49.744;7.012;2023-04-25T09:37:24;95600.56;;;6.27;100.00
33454;BME280;39400;49.744;7.012;2023-04-25T09:40:13;95602.53;;;6.67;100.00
33454;BME280;39400;49.744;7.012;2023-04-25T09:42:58;95603.56;;;6.52;100.00
33454;BME280;39400;49.744;7.012;2023-04-25T09:45:24;95605.66;;;6.65;100.00
33454;BME280;39400;49.744;7.012;2023-04-25T09:47:49;95607.19;;;7.11;100.00
33454;BME280;39400;49.744;7.012;2023-04-25T09:50:19;95606.09;;;7.23;100.00
33454;BME280;39400;49.744;7.012;2023-04-25T09:53:03;95605.03;;;6.83;100.00
33454;BME280;39400;49.744;7.012;2023-04-25T09:55:29;95609.78;;;6.89;100.00
33454;BME280;39400;49.744;7.012;2023-04-25T09:57:56;95617.31;;;7.03;100.00
33454;BME280;39400;49.744;7.012;2023-04-25T10:00:26;95613.69;;;6.92;100.00
33454;BME280;39400;49.744;7.012;2023-04-25T10:02:52;95620.84;;;7.07;100.00
33454;BME280;39400;49.744;7.012;2023-04-25T10:05:38;95620.84;;;7.07;100.00
33454;BME280;39400;49.744;7.012;2023-04-25T10:08:04;95616.75;;;6.83;100.00
33454;BME280;39400;49.744;7.012;2023-04-25T10:10:32;95620.09;;;7.10;100.00
33454;BME280;39400;49.744;7.012;2023-04-25T10:12:57;95629.84;;;6.67;100.00
33454;BME280;39400;49.744;7.012;2023-04-25T10:15:23;95632.06;;;6.54;100.00
33454;BME280;39400;49.744;7.012;2023-04-25T10:17:50;95630.69;;;6.75;100.00
33454;BME280;39400;49.744;7.012;2023-04-25T10:20:16;95630.50;;;6.94;100.00
33454;BME280;39400;49.744;7.012;2023-04-25T10:22:42;95640.25;;;6.95;100.00
33454;BME280;39400;49.744;7.012;2023-04-25T10:25:09;95635.22;;;7.01;100.00
33454;BME280;39400;49.744;7.012;2023-04-25T10:27:35;95637.28;;;7.14;100.00
33454;BME280;39400;49.744;7.012;2023-04-25T10:30:07;95634.91;;;7.09;100.00
33454;BME280;39400;49.744;7.012;2023-04-25T10:32:33;95633.16;;;7.35;100.00
33454;BME280;39400;49.744;7.012;2023-04-25T10:35:10;95623.22;;;7.75;100.00
33454;BME280;39400;49.744;7.012;2023-04-25T10:37:35;95639.38;;;8.01;100.00
33454;BME280;39400;49.744;7.012;2023-04-25T10:40:08;95630.91;;;8.31;100.00
33454;BME280;39400;49.744;7.012;2023-04-25T10:42:34;95634.91;;;8.59;100.00
33454;BME280;39400;49.744;7.012;2023-04-25T10:45:18;95637.50;;;8.20;100.00
33454;BME280;39400;49.744;7.012;2023-04-25T10:47:44;95640.47;;;7.90;100.00
33454;BME280;39400;49.744;7.012;2023-04-25T10:50:09;95650.03;;;7.48;100.00
33454;BME280;39400;49.744;7.012;2023-04-25T10:52:38;95657.44;;;6.96;100.00
33454;BME280;39400;49.744;7.012;2023-04-25T10:55:04;95662.75;;;6.78;100.00
33454;BME280;39400;49.744;7.012;2023-04-25T10:57:31;95658.94;;;6.86;100.00
33454;BME280;39400;49.744;7.012;2023-04-25T11:02:26;95658.03;;;6.75;100.00
33454;BME280;39400;49.744;7.012;2023-04-25T11:04:53;95660.53;;;6.90;100.00
33454;BME280;39400;49.744;7.012;2023-04-25T11:07:23;95655.69;;;7.18;100.00
33454;BME280;39400;49.744;7.012;2023-04-25T11:09:51;95648.28;;;7.22;100.00
33454;BME280;39400;49.744;7.012;2023-04-25T11:12:16;95653.00;;;7.25;100.00
33454;BME280;39400;49.744;7.012;2023-04-25T11:14:42;95648.13;;;7.52;100.00
33454;BME280;39400;49.744;7.012;2023-04-25T11:17:07;95650.75;;;7.41;100.00
33454;BME280;39400;49.744;7.012;2023-04-25T11:19:32;95642.00;;;7.73;100.00
33454;BME280;39400;49.744;7.012;2023-04-25T11:21:59;95649.50;;;7.90;100.00
33454;BME280;39400;49.744;7.012;2023-04-25T11:24:27;95643.34;;;8.11;100.00
33454;BME280;39400;49.744;7.012;2023-04-25T11:26:52;95645.66;;;8.05;100.00
33454;BME280;39400;49.744;7.012;2023-04-25T11:29:17;95636.72;;;8.23;100.00
33454;BME280;39400;49.744;7.012;2023-04-25T11:31:44;95643.63;;;7.92;97.83
33454;BME280;39400;49.744;7.012;2023-04-25T11:34:09;95640.91;;;7.95;100.00
33454;BME280;39400;49.744;7.012;2023-04-25T11:36:37;95647.94;;;7.96;98.13
33454;BME280;39400;49.744;7.012;2023-04-25T11:39:03;95636.72;;;8.23;100.00
33454;BME280;39400;49.744;7.012;2023-04-25T11:41:28;95644.25;;;8.40;98.54
33454;BME280;39400;49.744;7.012;2023-04-25T11:43:55;95655.91;;;8.30;96.45
33454;BME280;39400;49.744;7.012;2023-04-25T11:46:21;95652.00;;;8.31;98.75
33454;BME280;39400;49.744;7.012;2023-04-25T11:48:46;95651.16;;;8.13;97.70
33454;BME280;39400;49.744;7.012;2023-04-25T11:51:12;95654.66;;;8.09;99.46
33454;BME280;39400;49.744;7.012;2023-04-25T11:53:41;95644.88;;;8.08;100.00
33454;BME280;39400;49.744;7.012;2023-04-25T11:56:10;95648.13;;;8.32;100.00
33454;BME280;39400;49.744;7.012;2023-04-25T11:58:57;95661.34;;;8.16;100.00
33454;BME280;39400;49.744;7.012;2023-04-25T12:01:38;95651.91;;;8.02;99.20
33454;BME280;39400;49.744;7.012;2023-04-25T12:04:15;95662.72;;;7.77;97.30
33454;BME280;39400;49.744;7.012;2023-04-25T12:06:42;95655.75;;;7.87;98.81
33454;BME280;39400;49.744;7.012;2023-04-25T12:09:10;95670.63;;;7.93;99.57
33454;BME280;39400;49.744;7.012;2023-04-25T12:11:44;95670.31;;;8.13;98.70
33454;BME280;39400;49.744;7.012;2023-04-25T12:14:10;95677.84;;;8.30;100.00
33454;BME280;39400;49.744;7.012;2023-04-25T12:16:46;95663.69;;;8.14;98.08
33454;BME280;39400;49.744;7.012;2023-04-25T12:19:15;95680.91;;;8.14;94.88
33454;BME280;39400;49.744;7.012;2023-04-25T12:21:41;95684.69;;;7.88;95.67
33454;BME280;39400;49.744;7.012;2023-04-25T12:24:23;95682.63;;;7.71;96.48
33454;BME280;39400;49.744;7.012;2023-04-25T12:27:09;95674.88;;;7.80;97.02
33454;BME280;39400;49.744;7.012;2023-04-25T12:29:35;95679.19;;;7.84;95.87
33454;BME280;39400;49.744;7.012;2023-04-25T12:32:00;95694.28;;;8.37;96.64
33454;BME280;39400;49.744;7.012;2023-04-25T12:34:26;95687.41;;;8.75;94.00
33454;BME280;39400;49.744;7.012;2023-04-25T12:36:52;95686.66;;;9.07;94.25
33454;BME280;39400;49.744;7.012;2023-04-25T12:39:19;95684.34;;;9.13;98.29
33454;BME280;39400;49.744;7.012;2023-04-25T12:41:45;95682.78;;;9.47;97.60
33454;BME280;39400;49.744;7.012;2023-04-25T12:44:11;95689.81;;;9.77;94.16
33454;BME280;39400;49.744;7.012;2023-04-25T12:46:37;95690.50;;;10.10;97.55
33454;BME280;39400;49.744;7.012;2023-04-25T12:49:03;95698.44;;;9.75;95.92
33454;BME280;39400;49.744;7.012;2023-04-25T12:51:29;95704.72;;;9.62;91.73
33454;BME280;39400;49.744;7.012;2023-04-25T12:53:54;95702.34;;;9.14;93.49
33454;BME280;39400;49.744;7.012;2023-04-25T12:56:20;95700.72;;;8.77;93.56
33454;BME280;39400;49.744;7.012;2023-04-25T12:58:45;95703.88;;;8.90;93.89
33454;BME280;39400;49.744;7.012;2023-04-25T13:01:11;95708.22;;;8.98;93.55
33454;BME280;39400;49.744;7.012;2023-04-25T13:03:36;95718.69;;;8.64;91.03
33454;BME280;39400;49.744;7.012;2023-04-25T13:06:01;95721.94;;;9.01;88.00
33454;BME280;39400;49.744;7.012;2023-04-25T13:08:27;95712.53;;;9.20;87.21
33454;BME280;39400;49.744;7.012;2023-04-25T13:10:52;95710.22;;;9.26;89.18
33454;BME280;39400;49.744;7.012;2023-04-25T13:13:17;95709.44;;;9.36;86.20
33454;BME280;39400;49.744;7.012;2023-04-25T13:15:43;95713.38;;;9.42;88.70
33454;BME280;39400;49.744;7.012;2023-04-25T13:18:08;95708.66;;;9.53;88.12
33454;BME280;39400;49.744;7.012;2023-04-25T13:20:33;95705.50;;;9.30;85.64
33454;BME280;39400;49.744;7.012;2023-04-25T13:22:59;95700.78;;;9.13;84.71
33454;BME280;39400;49.744;7.012;2023-04-25T13:25:24;95701.53;;;8.85;85.89
33454;BME280;39400;49.744;7.012;2023-04-25T13:27:49;95706.22;;;8.73;87.79
33454;BME280;39400;49.744;7.012;2023-04-25T13:30:15;95702.63;;;8.58;89.22
33454;BME280;39400;49.744;7.012;2023-04-25T13:32:40;95716.72;;;8.61;88.11